createdAt,value
2018-02-14T00:01:43.691Z,-2.70
2018-02-14T00:04:11.310Z,-2.70
2018-02-14T00:06:38.953Z,-2.60
2018-02-14T00:09:06.526Z,-2.70
2018-02-14T00:11:34.223Z,-2.70
2018-02-14T00:14:01.826Z,-2.70
2018-02-14T00:16:29.424Z,-2.70
2018-02-14T00:18:57.106Z,-2.70
2018-02-14T00:21:24.698Z,-2.70
2018-02-14T00:23:53.053Z,-2.80
2018-02-14T00:26:20.711Z,-2.70
2018-02-14T00:28:48.408Z,-2.80
2018-02-14T00:31:16.022Z,-2.60
2018-02-14T00:33:43.699Z,-2.70
2018-02-14T00:36:11.402Z,-2.40
2018-02-14T00:38:38.995Z,-2.40
2018-02-14T00:41:06.584Z,-2.40
2018-02-14T00:43:34.299Z,-2.40
2018-02-14T00:46:01.977Z,-2.40
2018-02-14T00:48:29.653Z,-2.60
2018-02-14T00:50:57.342Z,-2.60
2018-02-14T00:53:24.994Z,-2.50
2018-02-14T00:55:52.671Z,-2.30
2018-02-14T00:58:20.355Z,-2.30
2018-02-14T01:00:47.980Z,-2.40
2018-02-14T01:03:15.558Z,-2.40
2018-02-14T01:05:43.186Z,-2.70
2018-02-14T01:08:10.778Z,-2.40
2018-02-14T01:10:38.458Z,-2.50
2018-02-14T01:13:06.057Z,-2.70
2018-02-14T01:15:33.730Z,-2.70
2018-02-14T01:18:01.361Z,-2.90
2018-02-14T01:20:34.885Z,-2.70
2018-02-14T01:23:02.498Z,-2.80
2018-02-14T01:25:30.099Z,-2.80
2018-02-14T01:27:57.674Z,-2.80
2018-02-14T01:30:26.268Z,-3.00
2018-02-14T01:32:53.939Z,-2.90
2018-02-14T01:35:21.558Z,-2.80
2018-02-14T01:37:49.228Z,-3.90
2018-02-14T01:40:16.862Z,-3.00
2018-02-14T01:42:44.530Z,-3.00
2018-02-14T01:45:12.136Z,-3.10
2018-02-14T01:47:39.734Z,-3.10
2018-02-14T01:50:07.420Z,-3.20
2018-02-14T01:52:35.040Z,-3.20
2018-02-14T01:55:02.670Z,-3.10
2018-02-14T01:57:30.341Z,-2.90
2018-02-14T01:59:57.925Z,-2.90
2018-02-14T02:02:25.595Z,-2.80
2018-02-14T02:04:53.192Z,-2.60
2018-02-14T02:07:20.768Z,-2.80
2018-02-14T02:09:48.379Z,-3.00
2018-02-14T02:12:16.031Z,-3.10
2018-02-14T02:14:43.723Z,-3.20
2018-02-14T02:17:11.392Z,-3.00
2018-02-14T02:19:39.063Z,-3.00
2018-02-14T02:22:06.671Z,-3.00
2018-02-14T02:24:34.358Z,-3.20
2018-02-14T02:27:01.958Z,-3.30
2018-02-14T02:29:29.585Z,-3.30
2018-02-14T02:31:57.238Z,-3.40
2018-02-14T02:34:24.840Z,-3.30
2018-02-14T02:36:52.439Z,-3.30
2018-02-14T02:39:31.791Z,-3.40
2018-02-14T02:41:59.449Z,-3.30
2018-02-14T02:44:27.123Z,-3.20
2018-02-14T02:46:54.803Z,-3.30
2018-02-14T02:49:22.458Z,-3.30
2018-02-14T02:51:50.070Z,-3.40
2018-02-14T02:54:17.734Z,-3.50
2018-02-14T02:56:45.357Z,-3.60
2018-02-14T02:59:12.945Z,-3.60
2018-02-14T03:01:40.544Z,-3.60
2018-02-14T03:04:08.211Z,-3.50
2018-02-14T03:06:35.814Z,-3.50
2018-02-14T03:09:03.414Z,-3.40
2018-02-14T03:11:31.029Z,-3.50
2018-02-14T03:13:58.620Z,-3.40
2018-02-14T03:16:26.280Z,-3.30
2018-02-14T03:18:53.903Z,-3.50
2018-02-14T03:21:21.494Z,-3.60
2018-02-14T03:23:49.154Z,-3.60
2018-02-14T03:26:16.791Z,-3.70
2018-02-14T03:28:44.381Z,-3.80
2018-02-14T03:31:11.974Z,-3.80
2018-02-14T03:33:39.552Z,-3.80
2018-02-14T03:36:07.159Z,-3.70
2018-02-14T03:38:34.829Z,-3.70
2018-02-14T03:41:02.535Z,-3.60
2018-02-14T03:43:30.206Z,-3.60
2018-02-14T03:45:57.809Z,-3.60
2018-02-14T03:48:25.474Z,-3.70
2018-02-14T03:50:53.167Z,-3.70
2018-02-14T03:53:20.767Z,-3.60
2018-02-14T03:55:48.379Z,-3.70
2018-02-14T03:58:16.047Z,-3.60
2018-02-14T04:00:43.728Z,-3.70
2018-02-14T04:03:11.394Z,-3.70
2018-02-14T04:05:39.004Z,-3.70
2018-02-14T04:08:06.594Z,-3.60
2018-02-14T04:10:34.218Z,-3.60
2018-02-14T04:13:01.833Z,-3.70
2018-02-14T04:15:29.440Z,-3.70
2018-02-14T04:17:57.017Z,-3.80
2018-02-14T04:20:24.619Z,-3.70
2018-02-14T04:22:52.278Z,-3.70
2018-02-14T04:25:19.975Z,-3.50
2018-02-14T04:27:47.587Z,-3.40
2018-02-14T04:30:27.092Z,-3.30
2018-02-14T04:32:54.765Z,-3.30
2018-02-14T04:35:22.388Z,-3.40
2018-02-14T04:37:49.971Z,-3.40
2018-02-14T04:40:17.581Z,-3.60
2018-02-14T04:42:45.174Z,-3.70
2018-02-14T04:45:12.834Z,-3.80
2018-02-14T04:47:40.498Z,-3.90
2018-02-14T04:50:08.119Z,-3.90
2018-02-14T04:52:35.890Z,-3.80
2018-02-14T04:55:03.492Z,-3.80
2018-02-14T04:57:31.208Z,-3.90
2018-02-14T04:59:58.801Z,-3.90
2018-02-14T05:02:26.428Z,-3.80
2018-02-14T05:04:54.037Z,-3.90
2018-02-14T05:07:21.700Z,-3.90
2018-02-14T05:09:49.318Z,-3.90
2018-02-14T05:12:16.949Z,-3.90
2018-02-14T05:14:44.623Z,-4.00
2018-02-14T05:17:12.239Z,-4.00
2018-02-14T05:19:39.828Z,-4.00
2018-02-14T05:22:07.406Z,-4.10
2018-02-14T05:24:35.006Z,-4.00
2018-02-14T05:27:02.588Z,-4.00
2018-02-14T05:29:30.300Z,-3.90
2018-02-14T05:31:57.971Z,-4.00
2018-02-14T05:34:25.602Z,-4.00
2018-02-14T05:36:53.200Z,-4.00
2018-02-14T05:39:20.797Z,-4.00
2018-02-14T05:41:48.374Z,-3.90
2018-02-14T05:44:15.990Z,-4.10
2018-02-14T05:46:43.590Z,-4.10
2018-02-14T05:49:11.190Z,-3.90
2018-02-14T05:51:38.778Z,-4.00
2018-02-14T05:54:06.379Z,-4.00
2018-02-14T05:56:33.982Z,-3.90
2018-02-14T05:59:01.626Z,-4.00
2018-02-14T06:01:29.339Z,-3.80
2018-02-14T06:03:56.989Z,-3.90
2018-02-14T06:06:24.609Z,-4.00
2018-02-14T06:08:52.295Z,-4.10
2018-02-14T06:11:19.911Z,-4.10
2018-02-14T06:13:47.519Z,-4.10
2018-02-14T06:16:15.156Z,-4.20
2018-02-14T06:18:42.768Z,-4.10
2018-02-14T06:21:10.372Z,-4.10
2018-02-14T06:23:38.095Z,-4.20
2018-02-14T06:26:05.810Z,-4.30
2018-02-14T06:28:33.502Z,-4.20
2018-02-14T06:31:01.207Z,-4.10
2018-02-14T06:33:28.829Z,-4.10
2018-02-14T06:35:56.410Z,-4.20
2018-02-14T06:38:24.023Z,-4.20
2018-02-14T06:40:51.623Z,-4.20
2018-02-14T06:43:19.234Z,-4.20
2018-02-14T06:45:46.952Z,-4.20
2018-02-14T06:48:14.556Z,-4.20
2018-02-14T06:50:42.230Z,-4.20
2018-02-14T06:53:09.927Z,-4.00
2018-02-14T06:55:37.619Z,-4.10
2018-02-14T06:58:05.347Z,-4.00
2018-02-14T07:00:33.058Z,-3.80
2018-02-14T07:03:00.705Z,-3.90
2018-02-14T07:05:28.421Z,-4.00
2018-02-14T07:07:56.067Z,-3.60
2018-02-14T07:10:23.825Z,-3.70
2018-02-14T07:12:51.537Z,-3.60
2018-02-14T07:15:19.208Z,-3.60
2018-02-14T07:17:46.826Z,-3.40
2018-02-14T07:20:14.532Z,-3.50
2018-02-14T07:22:42.156Z,-3.50
2018-02-14T07:25:09.771Z,-3.40
2018-02-14T07:27:37.679Z,-3.40
2018-02-14T07:30:05.407Z,-3.20
2018-02-14T07:32:33.206Z,-2.80
2018-02-14T07:35:00.846Z,-2.60
2018-02-14T07:37:28.517Z,-2.50
2018-02-14T07:39:56.190Z,-2.20
2018-02-14T07:42:23.790Z,-2.10
2018-02-14T07:44:52.229Z,-2.00
2018-02-14T07:47:21.264Z,-1.90
2018-02-14T07:49:49.102Z,-1.70
2018-02-14T07:52:16.803Z,-1.70
2018-02-14T07:54:44.543Z,-1.50
2018-02-14T07:57:12.226Z,-1.40
2018-02-14T07:59:39.927Z,-1.40
2018-02-14T08:02:07.636Z,-1.20
2018-02-14T08:04:35.689Z,-1.10
2018-02-14T08:07:03.489Z,-1.00
2018-02-14T08:09:31.174Z,-0.90
2018-02-14T08:11:58.954Z,-0.80
2018-02-14T08:14:26.941Z,-0.60
2018-02-14T08:16:56.395Z,-0.50
2018-02-14T08:19:28.793Z,-0.40
2018-02-14T08:22:01.264Z,-0.30
2018-02-14T08:24:29.889Z,-0.30
2018-02-14T08:27:01.773Z,-0.20
2018-02-14T08:29:30.395Z,-0.10
2018-02-14T08:31:58.345Z,0.00
2018-02-14T08:34:26.144Z,0.10
2018-02-14T08:36:59.041Z,0.10
2018-02-14T08:39:29.044Z,0.30
2018-02-14T08:41:57.717Z,0.30
2018-02-14T08:44:30.720Z,0.40
2018-02-14T08:47:00.096Z,0.50
2018-02-14T08:49:27.833Z,0.60
2018-02-14T08:51:56.658Z,0.60
2018-02-14T08:54:25.830Z,0.70
2018-02-14T08:56:57.547Z,0.80
2018-02-14T08:59:26.313Z,0.70
2018-02-14T09:01:55.433Z,0.80
2018-02-14T09:04:29.407Z,0.90
2018-02-14T09:06:59.083Z,1.10
2018-02-14T09:09:30.882Z,3.50
2018-02-14T09:11:58.936Z,1.20
2018-02-14T09:14:27.363Z,1.10
2018-02-14T09:16:56.969Z,1.10
2018-02-14T09:19:28.903Z,1.40
2018-02-14T09:21:57.617Z,1.50
2018-02-14T09:24:26.493Z,1.50
2018-02-14T09:26:54.772Z,1.50
2018-02-14T09:29:25.482Z,1.70
2018-02-14T09:31:53.441Z,1.70
2018-02-14T09:34:24.904Z,2.60
2018-02-14T09:36:54.175Z,1.60
2018-02-14T09:39:22.122Z,1.80
2018-02-14T09:41:49.951Z,1.80
2018-02-14T09:44:17.723Z,2.00
2018-02-14T09:46:45.433Z,2.10
2018-02-14T09:49:13.480Z,2.20
2018-02-14T09:51:41.200Z,2.20
2018-02-14T09:54:08.836Z,2.30
2018-02-14T09:56:36.695Z,2.60
2018-02-14T09:59:04.357Z,2.80
2018-02-14T10:01:32.041Z,2.80
2018-02-14T10:03:59.678Z,2.80
2018-02-14T10:06:27.347Z,3.00
2018-02-14T10:08:55.053Z,3.10
2018-02-14T10:11:22.724Z,3.40
2018-02-14T10:13:50.399Z,3.60
2018-02-14T10:16:18.610Z,3.60
2018-02-14T10:18:47.490Z,4.10
2018-02-14T10:21:20.280Z,4.30
2018-02-14T10:23:49.480Z,4.60
2018-02-14T10:26:18.078Z,4.70
2018-02-14T10:28:46.817Z,5.00
2018-02-14T10:31:14.437Z,4.90
2018-02-14T10:33:42.397Z,4.80
2018-02-14T10:36:10.501Z,4.80
2018-02-14T10:38:38.517Z,5.00
2018-02-14T10:41:06.357Z,5.30
2018-02-14T10:43:33.959Z,5.10
2018-02-14T10:46:01.705Z,4.90
2018-02-14T10:48:29.443Z,5.40
2018-02-14T10:50:57.311Z,5.80
2018-02-14T10:53:24.975Z,5.60
2018-02-14T10:55:53.362Z,5.40
2018-02-14T10:58:20.983Z,5.90
2018-02-14T11:00:54.308Z,6.30
2018-02-14T11:03:27.673Z,6.40
2018-02-14T11:06:01.520Z,6.70
2018-02-14T11:08:29.207Z,6.70
2018-02-14T11:10:57.065Z,6.70
2018-02-14T11:13:24.780Z,6.80
2018-02-14T11:15:52.394Z,6.80
2018-02-14T11:18:20.024Z,6.70
2018-02-14T11:20:47.658Z,6.30
2018-02-14T11:23:15.248Z,7.00
2018-02-14T11:25:42.884Z,7.00
2018-02-14T11:28:10.491Z,6.80
2018-02-14T11:30:38.170Z,7.20
2018-02-14T11:33:05.828Z,7.00
2018-02-14T11:35:33.501Z,7.20
2018-02-14T11:38:01.105Z,7.80
2018-02-14T11:40:28.687Z,7.10
2018-02-14T11:42:56.376Z,7.20
2018-02-14T11:45:23.980Z,7.50
2018-02-14T11:47:51.605Z,7.80
2018-02-14T11:50:19.194Z,7.40
2018-02-14T11:52:46.792Z,8.00
2018-02-14T11:55:14.454Z,7.90
2018-02-14T11:57:42.170Z,8.20
2018-02-14T12:00:09.776Z,8.50
2018-02-14T12:02:37.418Z,7.90
2018-02-14T12:05:05.016Z,8.30
2018-02-14T12:07:32.639Z,8.10
2018-02-14T12:10:00.323Z,8.80
2018-02-14T12:12:28.587Z,9.00
2018-02-14T12:14:56.436Z,8.90
2018-02-14T12:17:24.619Z,9.10
2018-02-14T12:19:53.128Z,8.20
2018-02-14T12:22:21.037Z,8.60
2018-02-14T12:24:48.733Z,8.70
2018-02-14T12:27:16.376Z,8.90
2018-02-14T12:29:44.186Z,9.70
2018-02-14T12:32:12.047Z,9.60
2018-02-14T12:34:40.226Z,10.00
2018-02-14T12:37:08.460Z,9.70
2018-02-14T12:39:36.207Z,10.00
2018-02-14T12:42:03.870Z,9.60
2018-02-14T12:44:31.636Z,9.30
2018-02-14T12:46:59.445Z,9.40
2018-02-14T12:49:28.104Z,9.10
2018-02-14T12:51:56.783Z,9.00
2018-02-14T12:54:25.125Z,9.50
2018-02-14T12:56:53.090Z,9.80
2018-02-14T12:59:21.163Z,9.30
2018-02-14T13:01:49.122Z,9.70
2018-02-14T13:04:16.762Z,9.40
2018-02-14T13:06:44.877Z,10.00
2018-02-14T13:09:12.761Z,9.70
2018-02-14T13:11:40.378Z,9.40
2018-02-14T13:14:09.036Z,9.80
2018-02-14T13:16:37.130Z,10.10
2018-02-14T13:19:04.951Z,10.00
2018-02-14T13:21:32.647Z,9.80
2018-02-14T13:24:00.296Z,9.90
2018-02-14T13:26:27.928Z,10.00
2018-02-14T13:28:55.839Z,10.20
2018-02-14T13:31:25.233Z,10.40
2018-02-14T13:33:55.175Z,10.80
2018-02-14T13:36:25.086Z,10.70
2018-02-14T13:38:54.382Z,10.50
2018-02-14T13:41:22.982Z,10.70
2018-02-14T13:43:52.356Z,11.10
2018-02-14T13:46:23.448Z,11.30
2018-02-14T13:48:51.962Z,10.50
2018-02-14T13:51:19.633Z,10.70
2018-02-14T13:53:47.402Z,10.70
2018-02-14T13:56:15.917Z,10.90
2018-02-14T13:58:44.131Z,10.60
2018-02-14T14:01:13.321Z,11.10
2018-02-14T14:03:41.044Z,10.70
2018-02-14T14:06:09.486Z,11.30
2018-02-14T14:11:16.247Z,11.80
2018-02-14T14:13:43.896Z,11.20
2018-02-14T14:16:12.749Z,10.90
2018-02-14T14:18:40.393Z,11.10
2018-02-14T14:21:14.710Z,11.30
2018-02-14T14:23:45.777Z,11.60
2018-02-14T14:26:19.870Z,11.00
2018-02-14T14:28:48.913Z,11.20
2018-02-14T14:33:55.547Z,10.60
2018-02-14T14:36:30.204Z,10.70
2018-02-14T14:39:01.154Z,10.80
2018-02-14T14:41:30.812Z,10.90
2018-02-14T14:44:02.298Z,10.70
2018-02-14T14:46:30.865Z,10.00
2018-02-14T14:48:59.492Z,10.20
2018-02-14T14:51:29.865Z,10.00
2018-02-14T14:54:00.749Z,10.40
2018-02-14T14:56:32.108Z,8.90
2018-02-14T14:58:59.917Z,8.40
2018-02-14T15:01:29.282Z,8.50
2018-02-14T15:03:58.487Z,8.40
2018-02-14T15:06:27.557Z,7.80
2018-02-14T15:08:56.035Z,7.90
2018-02-14T15:11:25.101Z,8.60
2018-02-14T15:16:32.854Z,8.60
2018-02-14T15:19:00.504Z,7.70
2018-02-14T15:21:30.570Z,6.90
2018-02-14T15:24:00.455Z,6.80
2018-02-14T15:26:29.170Z,6.40
2018-02-14T15:28:59.700Z,6.00
2018-02-14T15:31:31.035Z,5.80
2018-02-14T15:34:01.591Z,5.50
2018-02-14T15:36:29.213Z,5.40
2018-02-14T15:38:56.908Z,5.30
2018-02-14T15:41:24.533Z,5.40
2018-02-14T15:43:53.758Z,5.10
2018-02-14T15:46:21.578Z,5.10
2018-02-14T15:48:49.315Z,5.00
2018-02-14T15:51:17.030Z,4.90
2018-02-14T15:53:44.704Z,4.80
2018-02-14T15:56:12.411Z,4.70
2018-02-14T15:58:40.505Z,4.60
2018-02-14T16:01:08.186Z,4.50
2018-02-14T16:03:35.827Z,4.40
2018-02-14T16:06:03.476Z,4.40
2018-02-14T16:08:31.136Z,4.30
2018-02-14T16:10:58.794Z,4.30
2018-02-14T16:13:26.399Z,4.20
2018-02-14T16:15:54.015Z,4.00
2018-02-14T16:18:21.619Z,4.10
2018-02-14T16:20:49.235Z,4.00
2018-02-14T16:23:16.870Z,2.10
2018-02-14T16:25:44.520Z,3.80
2018-02-14T16:28:12.175Z,3.70
2018-02-14T16:30:39.880Z,3.60
2018-02-14T16:33:07.511Z,3.60
2018-02-14T16:35:35.155Z,3.60
2018-02-14T16:38:02.824Z,3.40
2018-02-14T16:40:30.469Z,3.60
2018-02-14T16:42:58.167Z,3.50
2018-02-14T16:45:25.925Z,3.30
2018-02-14T16:47:53.516Z,3.30
2018-02-14T16:50:21.148Z,3.20
2018-02-14T18:00:42.164Z,2.10
2018-02-14T18:03:09.762Z,2.10
2018-02-14T18:05:37.378Z,2.20
2018-02-14T18:08:05.764Z,2.00
2018-02-14T18:10:33.364Z,1.90
2018-02-14T18:13:01.304Z,1.90
2018-02-14T18:15:28.965Z,1.90
2018-02-14T18:17:56.582Z,1.80
2018-02-14T18:20:24.173Z,1.70
2018-02-14T18:22:51.876Z,1.60
2018-02-14T18:25:19.564Z,1.60
2018-02-14T18:27:47.987Z,1.30
2018-02-14T18:30:15.612Z,1.30
2018-02-14T18:32:43.330Z,1.30
2018-02-14T18:35:10.938Z,1.20
2018-02-14T18:37:38.610Z,1.20
2018-02-14T18:40:06.359Z,1.20
2018-02-14T18:42:34.000Z,1.40
2018-02-14T18:45:02.469Z,1.50
2018-02-14T18:47:30.134Z,1.50
2018-02-14T18:49:57.879Z,1.60
2018-02-14T18:52:25.603Z,1.50
2018-02-14T18:54:54.209Z,1.60
2018-02-14T18:57:22.596Z,1.60
2018-02-14T18:59:50.994Z,1.70
2018-02-14T19:02:19.376Z,1.70
2018-02-14T19:04:46.981Z,1.70
2018-02-14T19:07:14.752Z,1.80
2018-02-14T19:09:43.260Z,1.80
2018-02-14T19:12:11.418Z,1.90
2018-02-14T19:14:39.008Z,2.00
2018-02-14T19:17:06.827Z,2.00
2018-02-14T19:19:34.448Z,2.00
2018-02-14T19:22:02.065Z,2.10
2018-02-14T19:24:29.936Z,2.00
2018-02-14T19:26:59.460Z,2.10
2018-02-14T19:29:27.064Z,2.10
2018-02-14T19:31:54.969Z,2.10
2018-02-14T19:34:22.920Z,2.10
2018-02-14T19:36:50.641Z,2.20
2018-02-14T19:39:18.559Z,2.30
2018-02-14T19:41:46.220Z,2.30
2018-02-14T19:44:14.455Z,2.40
2018-02-14T19:46:42.983Z,2.30
2018-02-14T19:49:10.610Z,2.20
2018-02-14T19:51:38.972Z,2.30
2018-02-14T19:54:06.601Z,2.30
2018-02-14T19:56:34.566Z,2.30
2018-02-14T19:59:02.510Z,2.40
2018-02-14T20:01:30.202Z,2.40
2018-02-14T20:03:57.862Z,2.40
2018-02-14T20:06:25.461Z,2.30
2018-02-14T20:08:53.079Z,2.40
2018-02-14T20:11:20.667Z,2.40
2018-02-14T20:13:48.276Z,2.40
2018-02-14T20:16:15.902Z,2.30
2018-02-14T20:18:43.562Z,2.30
2018-02-14T20:21:12.999Z,2.30
2018-02-14T20:23:41.002Z,2.30
2018-02-14T20:26:08.676Z,2.30
2018-02-14T20:28:36.592Z,2.20
2018-02-14T20:31:04.188Z,2.10
2018-02-14T20:33:31.795Z,2.10
2018-02-14T20:36:00.150Z,2.20
2018-02-14T20:38:27.746Z,2.10
2018-02-14T20:40:55.352Z,2.20
2018-02-14T20:43:23.017Z,2.20
2018-02-14T20:45:50.624Z,2.10
2018-02-14T20:48:18.263Z,2.20
2018-02-14T20:50:45.889Z,2.20
2018-02-14T20:53:13.516Z,2.20
2018-02-14T20:55:41.108Z,2.10
2018-02-14T20:58:08.711Z,2.10
2018-02-14T21:00:36.321Z,2.00
2018-02-14T21:03:04.034Z,2.00
2018-02-14T21:05:31.649Z,2.10
2018-02-14T21:07:59.285Z,2.10
2018-02-14T21:10:26.862Z,2.10
2018-02-14T21:12:54.555Z,2.10
2018-02-14T21:15:22.939Z,2.20
2018-02-14T21:17:50.610Z,2.10
2018-02-14T21:20:18.217Z,2.20
2018-02-14T21:22:45.834Z,2.30
2018-02-14T21:25:13.526Z,2.20
2018-02-14T21:27:41.154Z,2.20
2018-02-14T21:30:08.749Z,2.30
2018-02-14T21:32:36.328Z,2.30
2018-02-14T21:35:03.941Z,2.30
2018-02-14T21:37:31.567Z,2.30
2018-02-14T21:39:59.195Z,2.30
2018-02-14T21:42:26.786Z,2.30
2018-02-14T21:44:54.470Z,2.30
2018-02-14T21:47:22.147Z,2.30
2018-02-14T21:49:49.778Z,2.20
2018-02-14T21:52:17.465Z,2.20
2018-02-14T21:54:45.106Z,2.30
2018-02-14T21:57:13.528Z,2.20
2018-02-14T21:59:41.134Z,2.20
2018-02-14T22:02:08.725Z,2.20
2018-02-14T22:04:36.583Z,2.30
2018-02-14T22:07:04.229Z,2.30
2018-02-14T22:09:31.857Z,2.30
2018-02-14T22:12:00.286Z,2.20
2018-02-14T22:14:27.935Z,2.20
2018-02-14T22:16:55.569Z,2.20
2018-02-14T22:19:23.174Z,2.20
2018-02-14T22:21:51.510Z,2.20
2018-02-14T22:24:19.186Z,2.20
2018-02-14T22:26:46.811Z,2.20
2018-02-14T22:29:14.403Z,2.20
2018-02-14T22:31:41.991Z,2.20
2018-02-14T22:34:09.588Z,2.20
2018-02-14T22:36:37.177Z,2.20
2018-02-14T22:39:04.849Z,2.20
2018-02-14T22:41:33.284Z,2.20
2018-02-14T22:44:00.928Z,2.20
2018-02-14T22:46:29.268Z,2.10
2018-02-14T22:48:56.892Z,2.10
2018-02-14T22:51:24.489Z,2.10
2018-02-14T22:53:52.071Z,2.10
2018-02-14T22:56:19.686Z,2.10
2018-02-14T22:58:48.134Z,2.10
2018-02-14T23:01:15.767Z,2.10
2018-02-14T23:03:44.123Z,2.10
2018-02-14T23:06:11.723Z,2.10
2018-02-14T23:08:40.084Z,2.10
2018-02-14T23:11:07.716Z,2.10
2018-02-14T23:13:35.405Z,2.10
2018-02-14T23:16:03.058Z,2.10
2018-02-14T23:18:30.655Z,2.20
2018-02-14T23:20:58.259Z,2.20
2018-02-14T23:23:25.844Z,2.20
2018-02-14T23:25:53.442Z,2.20
2018-02-14T23:28:21.024Z,2.20
2018-02-14T23:30:48.626Z,2.20
2018-02-14T23:33:16.279Z,2.20
2018-02-14T23:35:43.894Z,2.30
2018-02-14T23:38:12.272Z,2.30
2018-02-14T23:40:40.707Z,2.30
2018-02-14T23:43:08.293Z,2.20
2018-02-14T23:45:35.980Z,2.30
2018-02-14T23:48:03.685Z,2.30
2018-02-14T23:50:31.442Z,2.30
2018-02-14T23:52:59.163Z,2.30
2018-02-14T23:55:26.855Z,2.30
2018-02-14T23:57:54.534Z,2.30
